createdAt,value
2019-02-21T00:01:12.600Z,26.13
2019-02-21T00:03:42.402Z,24.47
2019-02-21T00:06:12.218Z,23.07
2019-02-21T00:08:42.064Z,26.07
2019-02-21T00:11:11.628Z,27.33
2019-02-21T00:13:41.595Z,25.83
2019-02-21T00:16:11.488Z,25.17
2019-02-21T00:18:41.567Z,24.43
2019-02-21T00:21:12.756Z,20.27
2019-02-21T00:23:42.468Z,18.73
2019-02-21T00:26:12.266Z,19.77
2019-02-21T00:28:42.012Z,19.20
2019-02-21T00:31:11.681Z,22.37
2019-02-21T00:33:41.524Z,21.80
2019-02-21T00:36:11.351Z,28.70
2019-02-21T00:38:41.133Z,39.40
2019-02-21T00:41:11.096Z,53.50
2019-02-21T00:43:40.977Z,56.00
2019-02-21T00:46:10.780Z,55.40
2019-02-21T00:48:40.590Z,47.37
2019-02-21T00:51:10.421Z,28.27
2019-02-21T00:53:40.400Z,25.10
2019-02-21T00:56:10.030Z,28.93
2019-02-21T00:58:39.971Z,20.30
2019-02-21T01:01:09.703Z,23.20
2019-02-21T01:03:40.396Z,38.70
2019-02-21T01:06:10.213Z,40.50
2019-02-21T01:08:40.257Z,35.63
2019-02-21T01:11:10.350Z,56.97
2019-02-21T01:13:40.202Z,37.40
2019-02-21T01:16:10.098Z,35.70
2019-02-21T01:18:40.315Z,43.60
2019-02-21T01:21:10.167Z,31.37
2019-02-21T01:23:39.977Z,37.50
2019-02-21T01:26:09.769Z,23.53
2019-02-21T01:28:39.560Z,21.27
2019-02-21T01:31:09.521Z,23.43
2019-02-21T01:33:39.303Z,22.80
2019-02-21T01:36:09.370Z,27.13
2019-02-21T01:38:39.128Z,21.77
2019-02-21T01:41:09.801Z,19.37
2019-02-21T01:43:39.743Z,23.63
2019-02-21T01:46:09.756Z,19.73
2019-02-21T01:48:39.940Z,28.13
2019-02-21T01:51:09.695Z,20.60
2019-02-21T01:53:39.362Z,21.40
2019-02-21T01:56:09.314Z,16.47
2019-02-21T01:58:39.073Z,21.53
2019-02-21T02:01:09.157Z,21.20
2019-02-21T02:03:39.713Z,24.53
2019-02-21T02:06:09.531Z,18.90
2019-02-21T02:08:39.475Z,21.50
2019-02-21T02:11:09.287Z,22.03
2019-02-21T02:13:39.206Z,20.03
2019-02-21T02:16:09.227Z,21.20
2019-02-21T02:18:39.357Z,19.70
2019-02-21T02:21:09.168Z,19.90
2019-02-21T02:23:38.999Z,20.17
2019-02-21T02:26:08.908Z,21.57
2019-02-21T02:28:38.983Z,21.00
2019-02-21T02:31:21.517Z,20.33
2019-02-21T02:33:40.476Z,19.20
2019-02-21T02:36:10.272Z,18.47
2019-02-21T02:38:40.027Z,20.00
2019-02-21T02:41:09.955Z,22.20
2019-02-21T02:43:39.734Z,21.77
2019-02-21T02:46:09.647Z,18.97
2019-02-21T02:48:39.578Z,21.13
2019-02-21T02:51:09.374Z,19.90
2019-02-21T02:53:39.134Z,20.63
2019-02-21T02:56:09.332Z,21.10
2019-02-21T02:58:39.022Z,21.23
2019-02-21T03:01:08.889Z,25.63
2019-02-21T03:03:38.635Z,20.63
2019-02-21T03:06:08.411Z,20.53
2019-02-21T03:08:38.171Z,20.30
2019-02-21T03:11:07.886Z,21.87
2019-02-21T03:13:37.892Z,20.40
2019-02-21T03:16:07.713Z,20.20
2019-02-21T03:18:37.656Z,22.23
2019-02-21T03:21:07.686Z,22.97
2019-02-21T03:23:37.367Z,22.10
2019-02-21T03:26:07.241Z,21.17
2019-02-21T03:28:37.102Z,21.60
2019-02-21T03:31:07.120Z,22.20
2019-02-21T03:33:36.884Z,23.27
2019-02-21T03:36:06.761Z,26.17
2019-02-21T03:38:36.563Z,20.50
2019-02-21T03:41:06.942Z,23.20
2019-02-21T03:43:36.801Z,23.67
2019-02-21T03:46:06.661Z,23.17
2019-02-21T03:48:36.427Z,26.23
2019-02-21T03:51:06.348Z,25.30
2019-02-21T03:53:36.315Z,23.27
2019-02-21T03:56:06.081Z,24.30
2019-02-21T03:58:35.988Z,25.60
2019-02-21T04:01:05.884Z,25.07
2019-02-21T04:03:35.845Z,24.77
2019-02-21T04:06:05.646Z,25.77
2019-02-21T04:08:35.612Z,25.87
2019-02-21T04:11:05.687Z,26.03
2019-02-21T04:13:35.647Z,27.60
2019-02-21T04:16:05.528Z,28.13
2019-02-21T04:18:35.449Z,29.27
2019-02-21T04:21:05.386Z,24.63
2019-02-21T04:23:35.160Z,25.20
2019-02-21T04:26:04.991Z,27.50
2019-02-21T04:28:36.178Z,25.70
2019-02-21T04:31:05.854Z,26.50
2019-02-21T04:33:35.820Z,29.40
2019-02-21T04:36:05.524Z,28.07
2019-02-21T04:38:35.370Z,29.47
2019-02-21T04:41:05.101Z,32.00
2019-02-21T04:43:34.831Z,30.87
2019-02-21T04:46:04.616Z,32.47
2019-02-21T04:48:34.430Z,30.77
2019-02-21T04:51:04.298Z,32.40
2019-02-21T04:53:34.115Z,28.07
2019-02-21T04:56:03.982Z,36.40
2019-02-21T04:58:34.028Z,33.57
2019-02-21T05:01:03.880Z,35.87
2019-02-21T05:03:33.752Z,36.73
2019-02-21T05:06:03.767Z,38.00
2019-02-21T05:08:33.600Z,34.67
2019-02-21T05:11:03.477Z,38.07
2019-02-21T05:13:33.970Z,32.80
2019-02-21T05:16:06.126Z,33.53
2019-02-21T05:18:35.991Z,35.63
2019-02-21T05:21:05.801Z,38.23
2019-02-21T05:23:36.760Z,33.47
2019-02-21T05:26:07.342Z,33.43
2019-02-21T05:28:37.186Z,37.47
2019-02-21T05:31:11.576Z,38.33
2019-02-21T05:33:52.858Z,35.10
2019-02-21T05:36:44.726Z,49.57
2019-02-21T05:39:32.076Z,48.17
2019-02-21T05:42:19.175Z,36.37
2019-02-21T05:45:06.885Z,34.37
2019-02-21T05:48:04.456Z,31.93
2019-02-21T05:50:53.179Z,33.97
2019-02-21T05:53:40.589Z,37.03
2019-02-21T05:56:24.951Z,35.27
2019-02-21T05:59:03.825Z,33.03
2019-02-21T06:01:58.830Z,32.77
2019-02-21T06:04:52.051Z,40.03
2019-02-21T06:07:30.053Z,43.03
2019-02-21T06:10:18.836Z,37.00
2019-02-21T06:13:00.160Z,35.67
2019-02-21T06:15:42.382Z,35.73
2019-02-21T06:18:34.235Z,33.17
2019-02-21T06:21:18.089Z,35.43
2019-02-21T06:23:56.671Z,34.13
2019-02-21T06:26:45.512Z,175.80
2019-02-21T06:29:22.475Z,111.40
2019-02-21T06:31:52.404Z,71.80
2019-02-21T06:34:22.352Z,43.47
2019-02-21T06:36:52.294Z,58.13
2019-02-21T06:39:22.171Z,56.20
2019-02-21T06:41:59.769Z,52.07
2019-02-21T06:44:24.074Z,58.63
2019-02-21T06:46:54.072Z,55.97
2019-02-21T06:49:32.176Z,50.97
2019-02-21T06:51:55.338Z,46.23
2019-02-21T06:54:25.128Z,59.93
2019-02-21T06:56:55.084Z,66.50
2019-02-21T06:59:24.872Z,60.43
2019-02-21T07:01:55.965Z,61.80
2019-02-21T07:04:25.837Z,64.20
2019-02-21T07:06:56.890Z,62.80
2019-02-21T07:09:26.593Z,66.77
2019-02-21T07:11:56.431Z,79.30
2019-02-21T07:14:27.552Z,67.70
2019-02-21T07:16:57.525Z,78.07
2019-02-21T07:19:27.445Z,62.30
2019-02-21T07:21:57.305Z,65.73
2019-02-21T07:24:27.396Z,50.03
2019-02-21T07:26:57.183Z,54.30
2019-02-21T07:29:26.958Z,56.43
2019-02-21T07:31:56.762Z,63.17
2019-02-21T07:34:26.696Z,61.17
2019-02-21T07:36:56.712Z,63.00
2019-02-21T07:39:35.731Z,63.20
2019-02-21T07:41:59.320Z,73.53
2019-02-21T07:44:29.238Z,65.70
2019-02-21T07:46:59.198Z,56.60
2019-02-21T07:49:29.077Z,53.50
2019-02-21T07:51:58.807Z,47.77
2019-02-21T07:54:28.684Z,49.57
2019-02-21T07:56:58.650Z,45.63
2019-02-21T07:59:28.507Z,50.30
2019-02-21T08:01:58.269Z,58.27
2019-02-21T08:04:28.032Z,57.23
2019-02-21T08:06:57.655Z,49.97
2019-02-21T08:09:28.063Z,45.77
2019-02-21T08:11:57.820Z,48.30
2019-02-21T08:14:27.605Z,47.87
2019-02-21T08:16:57.419Z,44.67
2019-02-21T08:19:27.244Z,54.30
2019-02-21T08:21:59.965Z,54.03
2019-02-21T08:24:29.154Z,57.57
2019-02-21T08:26:58.878Z,53.17
2019-02-21T08:29:28.659Z,61.60
2019-02-21T08:31:58.398Z,74.77
2019-02-21T08:34:38.434Z,61.43
2019-02-21T08:37:08.866Z,59.73
2019-02-21T08:39:38.935Z,65.60
2019-02-21T08:42:08.767Z,57.17
2019-02-21T08:44:38.573Z,49.73
2019-02-21T08:47:08.310Z,66.37
2019-02-21T08:49:38.130Z,57.70
2019-02-21T08:52:07.833Z,57.17
2019-02-21T08:54:38.011Z,61.30
2019-02-21T08:57:07.855Z,52.67
2019-02-21T08:59:37.460Z,62.97
2019-02-21T09:02:08.860Z,66.07
2019-02-21T09:04:38.628Z,74.50
2019-02-21T09:07:08.401Z,69.17
2019-02-21T09:09:38.153Z,73.60
2019-02-21T09:12:08.124Z,77.07
2019-02-21T09:14:38.055Z,78.47
2019-02-21T09:17:07.982Z,66.47
2019-02-21T09:19:37.808Z,65.87
2019-02-21T09:22:07.767Z,62.07
2019-02-21T09:24:42.019Z,65.37
2019-02-21T09:27:09.054Z,56.60
2019-02-21T09:29:38.843Z,66.77
2019-02-21T09:32:08.755Z,75.77
2019-02-21T09:34:38.496Z,75.87
2019-02-21T09:37:08.420Z,60.37
2019-02-21T09:39:38.203Z,59.70
2019-02-21T09:42:07.948Z,64.40
2019-02-21T09:44:39.087Z,60.90
2019-02-21T09:47:08.854Z,64.57
2019-02-21T09:49:38.815Z,45.43
2019-02-21T09:52:08.576Z,47.20
2019-02-21T09:54:38.229Z,50.17
2019-02-21T09:57:13.267Z,47.87
2019-02-21T09:59:39.559Z,59.80
2019-02-21T10:02:09.167Z,48.23
2019-02-21T10:04:39.138Z,48.67
2019-02-21T10:07:09.044Z,44.50
2019-02-21T10:09:38.926Z,62.30
2019-02-21T10:12:08.842Z,48.37
2019-02-21T10:14:39.995Z,50.27
2019-02-21T10:17:09.809Z,51.07
2019-02-21T10:19:39.740Z,57.57
2019-02-21T10:22:09.666Z,55.73
2019-02-21T10:24:39.169Z,64.60
2019-02-21T10:27:08.729Z,50.00
2019-02-21T10:29:38.247Z,47.87
2019-02-21T10:32:07.756Z,48.13
2019-02-21T10:34:42.946Z,47.87
2019-02-21T10:37:08.590Z,42.77
2019-02-21T10:39:38.190Z,38.90
2019-02-21T10:42:07.685Z,45.43
2019-02-21T10:44:37.252Z,43.83
2019-02-21T10:47:06.754Z,41.57
2019-02-21T10:49:36.470Z,41.43
2019-02-21T10:52:06.459Z,54.17
2019-02-21T10:54:36.195Z,44.93
2019-02-21T10:57:05.806Z,49.20
2019-02-21T10:59:45.894Z,51.00
2019-02-21T11:02:07.179Z,43.30
2019-02-21T11:04:37.043Z,44.63
2019-02-21T11:07:07.135Z,45.53
2019-02-21T11:09:37.042Z,36.83
2019-02-21T11:12:07.315Z,46.20
2019-02-21T11:14:47.303Z,47.60
2019-02-21T11:17:08.611Z,54.97
2019-02-21T11:19:38.465Z,47.83
2019-02-21T11:22:08.350Z,43.80
2019-02-21T11:24:38.319Z,42.00
2019-02-21T11:27:08.187Z,42.17
2019-02-21T11:29:38.209Z,46.57
2019-02-21T11:32:09.260Z,45.27
2019-02-21T11:34:39.065Z,49.07
2019-02-21T11:37:09.007Z,56.67
2019-02-21T11:39:38.930Z,59.90
2019-02-21T11:42:08.802Z,47.70
2019-02-21T11:44:38.517Z,40.63
2019-02-21T11:47:08.353Z,40.07
2019-02-21T11:49:38.318Z,38.83
2019-02-21T11:52:10.360Z,42.40
2019-02-21T11:54:39.906Z,38.20
2019-02-21T11:57:09.854Z,34.40
2019-02-21T11:59:39.661Z,33.10
2019-02-21T12:02:09.656Z,29.30
2019-02-21T12:04:39.418Z,28.60
2019-02-21T12:07:10.681Z,30.17
2019-02-21T12:09:40.508Z,31.50
2019-02-21T12:12:11.518Z,29.40
2019-02-21T12:14:41.434Z,31.40
2019-02-21T12:17:11.299Z,29.40
2019-02-21T12:19:41.135Z,27.70
2019-02-21T12:22:10.961Z,34.03
2019-02-21T12:24:40.783Z,27.23
2019-02-21T12:27:10.814Z,35.53
2019-02-21T12:29:40.652Z,29.43
2019-02-21T12:32:10.537Z,29.10
2019-02-21T12:34:40.439Z,30.93
2019-02-21T12:37:10.298Z,31.57
2019-02-21T12:39:40.090Z,27.80
2019-02-21T12:42:11.128Z,30.10
2019-02-21T12:44:41.048Z,34.20
2019-02-21T12:47:10.865Z,27.83
2019-02-21T12:49:40.803Z,31.37
2019-02-21T12:52:10.672Z,32.37
2019-02-21T12:54:40.588Z,29.43
2019-02-21T12:57:13.200Z,27.83
2019-02-21T12:59:42.978Z,29.77
2019-02-21T13:02:12.873Z,29.63
2019-02-21T13:04:42.787Z,32.00
2019-02-21T13:07:12.634Z,31.83
2019-02-21T13:09:43.794Z,26.67
2019-02-21T13:12:13.627Z,26.33
2019-02-21T13:14:43.310Z,28.73
2019-02-21T13:17:13.136Z,31.90
2019-02-21T13:19:43.066Z,27.33
2019-02-21T13:22:12.843Z,27.87
2019-02-21T13:24:42.666Z,25.30
2019-02-21T13:27:12.636Z,28.10
2019-02-21T13:29:42.499Z,25.77
2019-02-21T13:32:12.439Z,27.20
2019-02-21T13:34:42.278Z,27.47
2019-02-21T13:37:12.160Z,25.33
2019-02-21T13:39:41.960Z,34.93
2019-02-21T13:42:11.883Z,29.50
2019-02-21T13:44:41.790Z,29.07
2019-02-21T13:47:11.757Z,28.73
2019-02-21T13:49:41.644Z,29.77
2019-02-21T13:52:11.437Z,28.57
2019-02-21T13:54:42.392Z,27.10
2019-02-21T13:57:12.188Z,25.20
2019-02-21T13:59:42.021Z,29.23
2019-02-21T14:02:11.889Z,29.53
2019-02-21T14:04:41.864Z,29.90
2019-02-21T14:07:11.674Z,24.63
2019-02-21T14:09:41.647Z,27.67
2019-02-21T14:12:11.613Z,28.23
2019-02-21T14:14:42.493Z,24.73
2019-02-21T14:17:14.996Z,29.93
2019-02-21T14:19:43.801Z,31.87
2019-02-21T14:22:13.642Z,33.70
2019-02-21T14:24:43.601Z,30.20
2019-02-21T14:27:13.457Z,29.23
2019-02-21T14:29:43.410Z,29.73
2019-02-21T14:32:13.285Z,29.67
2019-02-21T14:34:43.207Z,28.17
2019-02-21T14:37:13.480Z,33.73
2019-02-21T14:39:43.290Z,33.10
2019-02-21T14:42:13.146Z,27.83
2019-02-21T14:44:42.977Z,31.37
2019-02-21T14:47:12.727Z,30.77
2019-02-21T14:49:42.510Z,32.63
2019-02-21T14:52:12.446Z,31.33
2019-02-21T14:54:42.215Z,33.40
2019-02-21T14:57:11.938Z,34.60
2019-02-21T14:59:44.555Z,32.83
2019-02-21T15:02:14.645Z,35.27
2019-02-21T15:04:44.391Z,32.27
2019-02-21T15:07:15.304Z,32.93
2019-02-21T15:09:45.693Z,29.43
2019-02-21T15:12:15.536Z,35.07
2019-02-21T15:14:45.264Z,33.23
2019-02-21T15:17:15.063Z,37.33
2019-02-21T15:19:44.920Z,38.17
2019-02-21T15:22:14.589Z,37.43
2019-02-21T15:24:44.467Z,53.20
2019-02-21T15:27:14.219Z,39.93
2019-02-21T15:29:44.128Z,37.37
2019-02-21T15:32:15.098Z,35.73
2019-02-21T15:34:47.136Z,35.63
2019-02-21T15:37:16.461Z,43.17
2019-02-21T15:39:47.610Z,40.17
2019-02-21T15:42:17.439Z,38.10
2019-02-21T15:44:47.402Z,43.43
2019-02-21T15:47:17.248Z,43.40
2019-02-21T15:49:47.044Z,37.63
2019-02-21T15:52:22.133Z,44.73
2019-02-21T15:54:48.484Z,43.37
2019-02-21T15:57:18.466Z,46.90
2019-02-21T15:59:48.581Z,45.63
2019-02-21T16:02:19.724Z,40.83
2019-02-21T16:04:49.444Z,43.07
2019-02-21T16:07:19.834Z,42.70
2019-02-21T16:09:49.767Z,41.83
2019-02-21T16:12:19.996Z,41.23
2019-02-21T16:14:50.036Z,40.03
2019-02-21T16:17:21.209Z,35.93
2019-02-21T16:19:51.408Z,42.43
2019-02-21T16:22:21.309Z,41.83
2019-02-21T16:24:51.442Z,42.43
2019-02-21T16:27:21.270Z,43.97
2019-02-21T16:29:50.963Z,48.10
2019-02-21T16:32:20.662Z,52.20
2019-02-21T16:34:50.500Z,45.00
2019-02-21T16:37:20.398Z,42.07
2019-02-21T16:39:50.196Z,53.27
2019-02-21T16:42:20.177Z,59.10
2019-02-21T16:44:49.924Z,56.83
2019-02-21T16:47:20.885Z,57.97
2019-02-21T16:49:50.693Z,52.40
2019-02-21T16:52:20.407Z,50.00
2019-02-21T16:54:50.270Z,54.70
2019-02-21T16:57:21.485Z,48.80
2019-02-21T16:59:51.178Z,50.43
2019-02-21T17:02:20.977Z,52.97
2019-02-21T17:04:51.193Z,48.23
2019-02-21T17:07:21.038Z,50.50
2019-02-21T17:09:50.860Z,52.87
2019-02-21T17:12:22.039Z,44.90
2019-02-21T17:14:51.791Z,47.93
2019-02-21T17:17:21.626Z,56.77
2019-02-21T17:19:51.453Z,46.97
2019-02-21T17:22:21.285Z,46.70
2019-02-21T17:24:53.071Z,50.87
2019-02-21T17:27:22.608Z,52.83
2019-02-21T17:29:52.459Z,48.60
2019-02-21T17:32:22.340Z,48.53
2019-02-21T17:34:52.155Z,48.83
2019-02-21T17:37:25.187Z,57.03
2019-02-21T17:39:54.965Z,45.67
2019-02-21T17:42:24.787Z,49.80
2019-02-21T17:44:54.653Z,48.77
2019-02-21T17:47:24.487Z,58.23
2019-02-21T17:49:54.209Z,52.37
2019-02-21T17:52:24.085Z,55.50
2019-02-21T17:54:53.862Z,49.60
2019-02-21T17:57:23.665Z,50.97
2019-02-21T17:59:53.548Z,52.73
2019-02-21T18:02:23.239Z,51.50
2019-02-21T18:04:54.335Z,49.87
2019-02-21T18:07:24.150Z,51.97
2019-02-21T18:09:55.117Z,51.97
2019-02-21T18:12:25.013Z,62.03
2019-02-21T18:14:54.902Z,51.33
2019-02-21T18:17:26.557Z,54.67
2019-02-21T18:19:56.381Z,48.73
2019-02-21T18:22:26.215Z,48.33
2019-02-21T18:24:56.176Z,54.17
2019-02-21T18:27:26.068Z,50.27
2019-02-21T18:29:55.768Z,52.00
2019-02-21T18:32:25.718Z,43.73
2019-02-21T18:34:55.483Z,51.00
2019-02-21T18:37:25.404Z,49.97
2019-02-21T18:39:56.466Z,53.90
2019-02-21T18:42:26.371Z,50.37
2019-02-21T18:44:56.164Z,43.47
2019-02-21T18:47:26.001Z,52.43
2019-02-21T18:49:55.816Z,46.90
2019-02-21T18:52:25.721Z,48.73
2019-02-21T18:54:55.677Z,45.90
2019-02-21T18:57:25.558Z,45.57
2019-02-21T18:59:55.394Z,45.37
2019-02-21T19:02:25.120Z,48.20
2019-02-21T19:04:54.966Z,48.07
2019-02-21T19:07:25.025Z,43.70
2019-02-21T19:09:54.839Z,45.00
2019-02-21T19:12:25.792Z,49.03
2019-02-21T19:14:55.489Z,49.50
2019-02-21T19:17:25.299Z,50.90
2019-02-21T19:19:55.373Z,50.83
2019-02-21T19:22:25.037Z,49.97
2019-02-21T19:25:02.360Z,45.33
2019-02-21T19:27:37.078Z,60.00
2019-02-21T19:30:04.886Z,49.57
2019-02-21T19:32:36.089Z,58.17
2019-02-21T19:35:05.907Z,51.23
2019-02-21T19:37:35.677Z,45.83
2019-02-21T19:40:08.776Z,43.97
2019-02-21T19:42:38.689Z,51.67
2019-02-21T19:45:08.858Z,51.93
2019-02-21T19:47:38.653Z,51.77
2019-02-21T19:50:08.536Z,50.30
2019-02-21T19:52:38.490Z,49.73
2019-02-21T19:55:08.303Z,55.43
2019-02-21T19:57:37.988Z,52.30
2019-02-21T20:00:10.201Z,51.93
2019-02-21T20:02:39.991Z,50.73
2019-02-21T20:05:10.329Z,50.73
2019-02-21T20:07:42.704Z,47.90
2019-02-21T20:10:12.477Z,61.07
2019-02-21T20:12:42.295Z,54.43
2019-02-21T20:15:12.645Z,50.40
2019-02-21T20:17:42.532Z,50.13
2019-02-21T20:20:13.306Z,52.37
2019-02-21T20:22:42.998Z,51.80
2019-02-21T20:25:12.796Z,49.70
2019-02-21T20:27:42.768Z,48.30
2019-02-21T20:30:14.083Z,54.03
2019-02-21T20:32:43.997Z,48.73
2019-02-21T20:35:13.789Z,55.30
2019-02-21T20:37:43.633Z,56.87
2019-02-21T20:40:13.861Z,56.00
2019-02-21T20:42:44.122Z,51.73
2019-02-21T20:45:13.915Z,56.93
2019-02-21T20:47:43.791Z,52.70
2019-02-21T20:50:13.770Z,56.87
2019-02-21T20:52:43.626Z,56.40
2019-02-21T20:55:14.164Z,60.80
2019-02-21T20:57:44.013Z,67.73
2019-02-21T21:00:14.113Z,60.47
2019-02-21T21:02:44.344Z,62.53
2019-02-21T21:05:15.085Z,73.17
2019-02-21T21:07:45.063Z,63.73
2019-02-21T21:10:14.845Z,65.30
2019-02-21T21:12:45.837Z,68.80
2019-02-21T21:15:16.069Z,66.63
2019-02-21T21:17:45.959Z,61.97
2019-02-21T21:20:17.212Z,69.50
2019-02-21T21:22:47.261Z,68.87
2019-02-21T21:25:17.212Z,65.67
2019-02-21T21:27:47.009Z,73.00
2019-02-21T21:30:17.296Z,64.17
2019-02-21T21:32:47.218Z,72.40
2019-02-21T21:35:17.049Z,70.13
2019-02-21T21:37:46.743Z,74.43
2019-02-21T21:40:16.765Z,73.00
2019-02-21T21:42:46.621Z,71.30
2019-02-21T21:45:17.721Z,71.73
2019-02-21T21:47:47.529Z,72.53
2019-02-21T21:50:18.007Z,71.03
2019-02-21T21:52:48.036Z,74.00
2019-02-21T21:55:18.108Z,80.53
2019-02-21T21:57:48.766Z,75.07
2019-02-21T22:00:20.807Z,80.03
2019-02-21T22:02:50.816Z,78.07
2019-02-21T22:05:21.015Z,83.70
2019-02-21T22:07:50.872Z,82.90
2019-02-21T22:10:20.698Z,77.73
2019-02-21T22:12:51.844Z,81.33
2019-02-21T22:15:21.818Z,82.33
2019-02-21T22:17:51.667Z,82.70
2019-02-21T22:20:21.632Z,93.87
2019-02-21T22:22:51.550Z,99.10
2019-02-21T22:25:21.494Z,91.07
2019-02-21T22:27:51.319Z,91.27
2019-02-21T22:30:21.772Z,83.13
2019-02-21T22:32:51.773Z,87.77
2019-02-21T22:35:21.919Z,83.70
2019-02-21T22:37:51.977Z,85.73
2019-02-21T22:40:22.115Z,85.13
2019-02-21T22:42:52.178Z,85.70
2019-02-21T22:45:22.287Z,75.17
2019-02-21T22:47:52.259Z,81.73
2019-02-21T22:50:22.632Z,70.27
2019-02-21T22:52:52.743Z,73.83
2019-02-21T22:55:22.672Z,78.87
2019-02-21T22:57:52.893Z,70.50
2019-02-21T23:01:01.598Z,83.20
2019-02-21T23:03:59.806Z,79.90
2019-02-21T23:06:52.248Z,82.13
2019-02-21T23:09:27.988Z,100.67
2019-02-21T23:11:56.979Z,86.00
2019-02-21T23:14:27.001Z,77.33
2019-02-21T23:16:57.855Z,77.53
2019-02-21T23:19:27.824Z,73.43
2019-02-21T23:21:57.776Z,66.87
2019-02-21T23:24:27.631Z,79.17
2019-02-21T23:26:57.327Z,72.20
2019-02-21T23:29:27.230Z,75.07
2019-02-21T23:31:57.117Z,73.70
2019-02-21T23:34:41.366Z,77.93
2019-02-21T23:37:11.247Z,72.57
2019-02-21T23:39:41.126Z,76.83
2019-02-21T23:42:10.937Z,75.67
2019-02-21T23:44:40.995Z,73.33
2019-02-21T23:47:10.866Z,72.80
2019-02-21T23:49:40.829Z,63.73
2019-02-21T23:52:10.486Z,102.53
2019-02-21T23:54:40.296Z,94.53
2019-02-21T23:57:10.157Z,83.70
2019-02-21T23:59:39.930Z,102.17
